Terminal Aerodrome Forecast
Issued by NWS Jacksonville, FL

Home | Current Version | Previous Version | Text Only | Print | Product List | Glossary On
Versions: 1 2 3 4 5 6 7 8 9 10 11 12 13 14 15 16 17 18 19 20 21 22
672
FTUS42 KJAX 290540
TAFJAX
TAF
KJAX 290540Z 2906/3006 26010KT P6SM FEW060 FEW250
     FM290900 25005KT 5SM BR SCT005
     FM291100 25004KT 3SM BR BKN005
     FM291400 25008KT P6SM SCT035
     FM292100 15008KT P6SM SCT040=

USA.gov is the U.S. government's official web portal to all federal, state and local government web resources and services.